サンティアゴ の空港の天気 - METARとTAF

アルトゥーロ・メリノ・ベニテス国際空港(サンティアゴ) ( SCEL / SCL ) - チリ サンティアゴ
飛行場実況気象(Metar)
観測時間02/01 06:00 CLST (02/01 09:00 UTC)
風向・風速南 3m/s
視程10km以上
天気現象
なし
気温15℃
湿度77%
気圧1015hPa
METARSCEL 010900Z 17005KT CAVOK 15/11 Q1015 NOSIG
過去の天気等 Google飛行場航空写真 Wunderground天気予報

過去48時間のMETAR

飛行場予報(TAF)
発表時間: 2/01 01:00 CLST (2/01 04:00 UTC)
予報対象時間: 1日3時 CLST ~ 2日3時 CLST
風向・風速南南東 3m/s
視程10km以上
なし
1日5時 CLST ~ 1日7時 CLST に徐々に
風向・風速不定 1m/s
1日12時 CLST ~ 1日14時 CLST に徐々に
風向・風速南南西 8m/s
1日23時 CLST ~ 2日1時 CLST に徐々に
風向・風速南南東 2m/s
TAF SCEL 010400Z 0106/0206 16006KT CAVOK TX31/0119Z TN14/0110Z
BECMG 0108/0110 VRB02KT
BECMG 0115/0117 20015KT
BECMG 0202/0204 15004KT